Latest Weather Observations for Nuriootpa

IDS60901

Issued at 11:15 pm CST Friday 19 September 2014 (issued every 10 minutes, with the page automatically refreshed every 10 minutes)

About weather observations | Map of Adelaide area stations | Latest observations for Adelaide area | Other Formats
Station Details ID: 023373 Name: NURIOOTPA VITICULTURAL Lat: -34.48 Lon: 139.01 Height: 275.0 m
Data from the previous 72 hours. | See also: Recent months at Nuriootpa
Date/Time
CST
Tmp

°C
App
Tmp
°C
Dew
Point
°C
Rel
Hum
%
Delta-T

°C
Wind Press
QNH
hPa
Press
MSL
hPa
Rain
since
9 am
mm
Dir
 
Spd
km/h
Gust
km/h
Spd
kts
Gust
kts
19/11:00pm 8.3 5.3 0.7 59 3.1 ENE 6 7 3 4 1024.2 1024.2 0.0
19/10:30pm 8.8 4.4 0.4 55 3.4 ESE 13 19 7 10 1024.4 1024.4 0.0
19/10:00pm 9.2 4.7 0.0 52 3.7 ESE 13 19 7 10 1024.5 1024.5 0.0
19/09:30pm 8.2 5.2 0.8 59 3.0 E 6 7 3 4 1024.4 1024.4 0.0
19/09:00pm 9.1 5.9 0.5 55 3.5 E 7 9 4 5 1024.4 1024.4 0.0
19/08:30pm 8.9 5.9 0.9 57 3.3 E 6 9 3 5 1024.3 1024.3 0.0
19/08:00pm 8.7 5.6 1.2 59 3.1 E 7 11 4 6 1024.2 1024.2 0.0
19/07:30pm 8.8 4.9 1.3 59 3.1 ESE 11 13 6 7 1024.0 1024.0 0.0
19/07:00pm 9.7 6.5 1.0 54 3.6 ESE 7 11 4 6 1023.9 1023.9 0.0
19/06:30pm 11.4 8.3 1.6 51 4.2 E 7 9 4 5 1023.5 1023.5 0.0
19/06:00pm 14.2 10.9 0.1 38 6.0 ENE 7 11 4 6 1023.4 1023.4 0.0
19/05:30pm 15.7 11.3 -2.4 29 7.4 NE 11 13 6 7 1023.2 1023.2 0.0
19/05:00pm 16.1 11.5 -1.3 30 7.3 N 13 19 7 10 1023.0 1023.0 0.0
19/04:30pm 16.5 12.2 -1.7 29 7.6 NE 11 19 6 10 1022.9 1022.9 0.0
19/04:00pm 16.4 12.5 -1.5 29 7.5 N 9 19 5 10 1023.0 1023.0 0.0
19/03:30pm 16.0 11.3 -1.9 29 7.4 ENE 13 24 7 13 1023.1 1023.1 0.0
19/03:00pm 16.3 11.3 -0.9 31 7.3 NE 15 24 8 13 1023.1 1023.1 0.0
19/02:30pm 16.2 11.6 -0.7 31 7.2 N 13 22 7 12 1023.3 1023.3 0.0
19/02:00pm 15.8 11.2 -0.7 32 7.0 ENE 13 22 7 12 1023.5 1023.5 0.0
19/01:30pm 15.6 12.0 0.3 35 6.6 NNE 9 26 5 14 1023.8 1023.8 0.0
19/01:00pm 15.3 10.5 0.5 36 6.4 E 15 24 8 13 1024.1 1024.1 0.0
19/12:30pm 14.6 10.4 1.4 40 5.8 NE 13 19 7 10 1024.5 1024.5 0.0
19/12:00pm 14.3 9.5 0.5 39 5.9 N 15 24 8 13 1024.9 1024.9 0.0
19/11:30am 14.6 9.6 1.3 40 5.8 NE 17 24 9 13 1025.2 1025.3 0.0
19/11:00am 14.2 10.1 2.3 44 5.3 NE 13 22 7 12 1025.7 1025.7 0.0
19/10:30am 13.3 8.8 2.2 47 4.9 ENE 15 24 8 13 1026.0 1026.0 0.0
19/10:00am 12.7 8.4 3.1 52 4.3 NE 15 20 8 11 1026.3 1026.3 0.0
19/09:30am 11.6 7.3 3.5 57 3.6 NE 15 24 8 13 1026.4 1026.4 0.0
19/09:00am 11.0 6.8 3.9 61 3.2 NE 15 20 8 11 1026.5 1026.5 0.2
19/08:30am 10.0 5.9 4.2 67 2.6 ENE 15 22 8 12 1026.2 1026.2 0.2
19/08:00am 9.2 5.1 4.5 72 2.1 ENE 15 22 8 12 1025.9 1025.9 0.2
19/07:30am 8.0 5.0 4.1 76 1.7 E 9 15 5 8 1025.8 1025.8 0.2
19/07:00am 6.9 4.8 4.1 82 1.2 ENE 4 11 2 6 1025.7 1025.7 0.2
19/06:30am 5.1 2.5 3.4 89 0.7 E 6 9 3 5 1025.4 1025.5 0.2
19/06:00am 4.5 2.2 2.8 89 0.7 W 4 9 2 5 1025.0 1025.0 0.2
19/05:30am 5.2 2.6 3.3 87 0.8 N 6 9 3 5 1024.7 1024.7 0.2
19/05:00am 5.5 2.4 3.6 87 0.8 E 9 15 5 8 1024.6 1024.6 0.2
19/04:30am 5.8 2.3 3.7 86 0.9 E 11 17 6 9 1024.3 1024.3 0.2
19/04:00am 6.1 2.7 3.8 85 1.0 ESE 11 19 6 10 1024.3 1024.3 0.2
19/03:30am 6.3 1.8 4.0 85 1.0 ESE 17 22 9 12 1024.1 1024.1 0.2
19/03:00am 6.3 2.1 4.0 85 1.0 ESE 15 24 8 13 1024.1 1024.1 0.2
19/02:30am 6.8 1.9 4.0 82 1.2 ESE 19 32 10 17 1024.2 1024.2 0.2
19/02:00am 6.9 1.8 4.1 82 1.2 SE 20 30 11 16 1024.4 1024.4 0.2
19/01:30am 7.2 2.1 4.0 80 1.4 SE 20 28 11 15 1024.6 1024.6 0.2
19/01:00am 7.3 2.2 4.3 81 1.3 SE 20 30 11 16 1024.6 1024.6 0.2
19/12:30am 7.3 2.4 4.3 81 1.3 SE 19 26 10 14 1024.8 1024.8 0.2
19/12:00am 7.5 2.7 4.6 82 1.3 SE 19 32 10 17 1025.0 1025.0 0.2
 
Date/Time
CST
Tmp

°C
App
Tmp
°C
Dew
Point
°C
Rel
Hum
%
Delta-T

°C
Wind Press
QNH
hPa
Press
MSL
hPa
Rain
since
9 am
mm
Dir
 
Spd
km/h
Gust
km/h
Spd
kts
Gust
kts
18/11:30pm 7.5 3.1 5.0 84 1.1 SE 17 28 9 15 1025.2 1025.3 0.2
18/11:00pm 7.6 2.9 5.1 84 1.1 SE 19 26 10 14 1025.3 1025.4 0.2
18/10:30pm 7.9 3.2 5.0 82 1.3 SE 19 26 10 14 1025.4 1025.5 0.2
18/10:00pm 8.0 3.2 4.9 81 1.4 SE 19 26 10 14 1025.5 1025.6 0.2
18/09:30pm 8.0 4.3 4.6 79 1.5 SE 13 20 7 11 1025.8 1025.8 0.2
18/09:00pm 8.2 4.2 4.8 79 1.5 SE 15 20 8 11 1025.8 1025.8 0.2
18/08:30pm 8.6 5.1 5.3 80 1.5 SE 13 19 7 10 1025.8 1025.8 0.2
18/08:00pm 9.0 4.8 5.5 79 1.6 SSE 17 20 9 11 1025.8 1025.8 0.2
18/07:30pm 9.0 6.4 6.0 81 1.4 SSE 9 13 5 7 1025.7 1025.7 0.2
18/07:00pm 9.5 7.6 7.4 87 1.0 SSE 7 9 4 5 1025.3 1025.4 0.2
18/06:30pm 9.8 7.5 7.5 85 1.1 SSE 9 11 5 6 1025.1 1025.2 0.0
18/06:00pm 10.2 7.7 6.6 78 1.7 S 9 13 5 7 1024.8 1024.8 0.0
18/05:30pm 10.9 8.1 5.0 67 2.7 SSE 9 13 5 7 1024.7 1024.7 0.0
18/05:00pm 10.9 8.2 5.8 71 2.4 SSE 9 13 5 7 1024.5 1024.5 0.0
18/04:30pm 11.1 8.5 6.0 71 2.4 SSE 9 11 5 6 1024.4 1024.4 0.0
18/04:00pm 11.0 8.1 6.6 74 2.1 SSE 11 17 6 9 1024.1 1024.1 0.0
18/03:30pm 10.7 6.8 7.2 79 1.7 SE 17 22 9 12 1024.4 1024.4 0.0
18/03:00pm 11.4 6.8 6.4 71 2.4 SSE 20 26 11 14 1024.4 1024.4 0.0
18/02:30pm 12.4 10.3 4.1 57 3.8 NNE 4 7 2 4 1024.3 1024.3 0.0
18/02:00pm 12.1 9.2 4.7 60 3.4 WSW 9 15 5 8 1024.6 1024.6 0.0
18/01:30pm 12.1 8.1 4.7 60 3.4 SW 15 22 8 12 1024.7 1024.7 0.0
18/01:00pm 11.3 7.2 4.5 63 3.1 SW 15 19 8 10 1024.7 1024.7 0.0
18/12:30pm 11.5 8.5 4.0 60 3.4 SW 9 17 5 9 1024.9 1024.9 0.0
18/12:00pm 12.0 9.4 3.3 55 3.9 N 6 9 3 5 1025.1 1025.2 0.0
18/11:30am 12.0 10.3 4.1 58 3.6 ESE 2 11 1 6 1025.5 1025.6 0.0
18/11:00am 11.7 9.1 3.1 55 3.8 SE 6 11 3 6 1025.8 1025.8 0.0
18/10:30am 11.5 8.8 3.7 58 3.5 S 7 11 4 6 1025.9 1025.9 0.0
18/10:00am 11.1 8.7 4.2 62 3.1 SW 6 11 3 6 1026.5 1026.5 0.0
18/09:30am 9.7 8.0 4.1 68 2.5 NW 2 7 1 4 1026.8 1026.8 0.0
18/09:00am 7.6 6.2 3.7 76 1.7 CALM 0 0 0 0 1026.9 1026.9 0.2
18/08:30am 6.1 3.5 3.3 82 1.2 NE 6 7 3 4 1026.6 1026.6 0.2
18/08:00am 4.7 3.1 2.5 86 0.9 CALM 0 0 0 0 1026.3 1026.3 0.2
18/07:30am 3.6 0.8 1.8 88 0.7 NE 6 7 3 4 1026.1 1026.1 0.2
18/07:00am 1.8 -0.8 0.7 92 0.4 NW 4 7 2 4 1025.9 1025.9 0.2
18/06:30am 0.9 -2.2 0.1 94 0.3 NE 6 7 3 4 1025.2 1025.3 0.2
18/06:00am 0.9 -2.4 -0.2 92 0.4 ENE 7 11 4 6 1025.0 1025.0 0.2
18/05:30am 0.8 -2.9 0.0 94 0.3 ENE 9 11 5 6 1025.0 1025.0 0.2
18/05:00am 0.9 -2.2 0.1 94 0.3 N 6 7 3 4 1024.9 1024.9 0.2
18/04:30am 0.7 -2.4 -0.1 94 0.3 N 6 9 3 5 1024.7 1024.7 0.2
18/04:00am 0.8 -2.9 -0.3 92 0.4 NE 9 9 5 5 1024.5 1024.5 0.2
18/03:30am 1.2 -2.1 0.1 92 0.4 NE 7 9 4 5 1024.8 1024.8 0.2
18/03:00am 1.1 -2.2 0.0 92 0.4 ENE 7 11 4 6 1024.9 1024.9 0.2
18/02:30am 1.0 -2.7 -0.1 92 0.4 ENE 9 11 5 6 1025.1 1025.2 0.2
18/02:00am 0.8 -2.3 0.3 96 0.2 NE 6 7 3 4 1025.3 1025.4 0.2
18/01:30am 1.3 -2.0 0.2 92 0.4 NNE 7 9 4 5 1025.2 1025.3 0.2
18/01:00am 1.5 -1.7 0.7 94 0.3 ENE 7 9 4 5 1025.3 1025.4 0.2
18/12:30am 2.1 -0.9 1.1 93 0.4 NE 6 7 3 4 1025.3 1025.4 0.2
18/12:00am 2.8 0.2 1.0 88 0.7 SW 4 6 2 3 1025.0 1025.0 0.2
 
Date/Time
CST
Tmp

°C
App
Tmp
°C
Dew
Point
°C
Rel
Hum
%
Delta-T

°C
Wind Press
QNH
hPa
Press
MSL
hPa
Rain
since
9 am
mm
Dir
 
Spd
km/h
Gust
km/h
Spd
kts
Gust
kts
17/11:30pm 4.4 1.5 1.4 81 1.2 SW 6 9 3 5 1025.1 1025.2 0.2
17/11:00pm 5.0 1.9 1.5 78 1.4 SSW 7 7 4 4 1025.0 1025.0 0.2
17/10:30pm 5.7 3.6 1.8 76 1.6 SSW 2 7 1 4 1025.0 1025.0 0.2
17/10:00pm 6.2 4.6 2.3 76 1.6 CALM 0 6 0 3 1025.0 1025.0 0.2
17/09:30pm 7.3 4.3 1.7 67 2.3 SW 7 11 4 6 1024.9 1024.9 0.2
17/09:00pm 7.2 3.8 2.1 70 2.1 SSW 9 13 5 7 1024.6 1024.6 0.2
17/08:30pm 7.2 3.9 2.7 73 1.9 SSW 9 13 5 7 1024.3 1024.3 0.2
17/08:00pm 7.5 4.8 3.6 76 1.7 S 7 50 4 27 1023.9 1023.9 0.2
17/07:30pm 7.1 4.2 2.6 73 1.9 S 7 13 4 7 1023.7 1023.7 0.2
17/07:00pm 8.8 6.2 3.3 68 2.4 SW 6 7 3 4 1023.3 1023.3 0.2
17/06:30pm 10.0 6.8 3.1 62 3.0 WSW 9 13 5 7 1023.0 1023.0 0.2
17/06:00pm 11.2 6.4 2.5 55 3.8 SW 17 22 9 12 1022.8 1022.8 0.2
17/05:30pm 12.4 6.8 1.5 47 4.7 SW 20 28 11 15 1022.6 1022.6 0.2
17/05:00pm 13.3 7.3 1.3 44 5.2 SW 22 28 12 15 1022.3 1022.3 0.2
17/04:30pm 13.7 7.5 2.2 45 5.1 SW 24 33 13 18 1022.1 1022.1 0.2
17/04:00pm 14.2 8.4 0.1 38 6.0 SW 20 30 11 16 1021.7 1021.7 0.2
17/03:30pm 14.3 8.1 -0.1 37 6.1 SW 22 35 12 19 1021.4 1021.4 0.2
17/03:00pm 14.1 8.1 0.9 40 5.7 WSW 22 30 12 16 1021.3 1021.3 0.2
17/02:30pm 13.6 7.0 2.0 45 5.1 WSW 26 33 14 18 1021.4 1021.4 0.2
17/02:00pm 14.2 7.6 2.3 44 5.3 WSW 26 33 14 18 1021.3 1021.3 0.2
17/01:30pm 14.4 7.5 2.6 45 5.3 SW 28 39 15 21 1021.5 1021.5 0.2
17/01:00pm 14.3 7.6 3.4 48 5.0 WSW 28 39 15 21 1021.4 1021.4 0.2
17/12:30pm 13.8 6.5 2.6 46 5.0 WSW 30 41 16 22 1021.4 1021.4 0.2
17/12:00pm 14.3 8.5 4.5 51 4.6 WSW 24 35 13 19 1021.4 1021.4 0.2
17/11:30am 13.6 9.1 5.9 59 3.7 SW 19 24 10 13 1021.7 1021.7 0.2
17/11:00am 11.8 6.0 6.1 68 2.7 SSW 26 35 14 19 1021.7 1021.7 0.2
17/10:30am 12.8 8.2 6.6 66 3.0 WSW 20 28 11 15 1021.9 1021.8 0.0
17/10:00am 12.5 8.5 6.7 68 2.8 WSW 17 24 9 13 1021.7 1021.7 0.0
17/09:30am 11.1 6.8 6.9 75 2.0 WSW 19 28 10 15 1021.7 1021.7 0.0
17/09:00am 10.7 7.8 8.3 85 1.2 SW 13 20 7 11 1021.6 1021.6 2.0
17/08:30am 10.1 7.3 8.5 90 0.8 SW 13 19 7 10 1021.4 1021.4 -
17/08:00am 9.3 7.6 8.3 93 0.5 SW 7 11 4 6 1021.1 1021.1 -
17/07:30am 8.0 6.0 6.9 93 0.5 W 7 9 4 5 1020.8 1020.8 -
17/07:00am 7.7 6.3 7.3 97 0.2 S 4 9 2 5 1020.4 1020.4 -
17/06:30am 6.8 4.8 6.4 97 0.2 SW 6 6 3 3 1019.9 1019.9 -
17/06:00am 7.3 5.4 6.9 97 0.2 SW 6 7 3 4 1019.6 1019.6 -
17/05:30am 7.9 5.2 7.3 96 0.3 WSW 11 15 6 8 1019.3 1019.3 -
17/05:00am 7.6 4.6 6.1 90 0.7 W 11 17 6 9 1019.0 1019.0 -
17/04:30am 7.6 4.5 5.4 86 1.0 WSW 11 15 6 8 1018.9 1018.8 -
17/04:00am 7.7 4.5 5.3 85 1.1 W 11 15 6 8 1018.7 1018.6 -
17/03:30am 7.5 3.9 4.8 83 1.2 WSW 13 17 7 9 1018.6 1018.5 -
17/03:00am 7.2 3.5 4.5 83 1.2 WSW 13 19 7 10 1018.4 1018.3 0.0
17/02:30am 7.3 3.6 4.6 83 1.2 W 13 19 7 10 1018.6 1018.5 -
17/02:00am 7.3 3.7 4.8 84 1.1 W 13 19 7 10 1018.7 1018.6 -
17/01:30am 7.2 3.5 4.7 84 1.1 WSW 13 15 7 8 1019.0 1019.0 -
17/01:00am 8.3 4.3 4.7 78 1.6 W 15 20 8 11 1019.1 1019.1 -
17/12:30am 8.4 4.1 5.1 80 1.5 W 17 24 9 13 1019.2 1019.2 -
17/12:00am 9.1 4.5 5.4 77 1.7 W 19 24 10 13 1019.4 1019.4 -
 
Date/Time
CST
Tmp

°C
App
Tmp
°C
Dew
Point
°C
Rel
Hum
%
Delta-T

°C
Wind Press
QNH
hPa
Press
MSL
hPa
Rain
since
9 am
mm
Dir
 
Spd
km/h
Gust
km/h
Spd
kts
Gust
kts
16/11:30pm 9.2 4.7 6.2 81 1.4 W 19 24 10 13 1019.3 1019.3 -

Latest Capital City Observations: Canberra | Sydney | Melbourne | Brisbane | Adelaide | Perth | Hobart | Darwin

Other Formats:

Comma delimited format used in spreadsheet applications
http://www.bom.gov.au/fwo/IDS60901/IDS60901.94681.axf

JavaScript Object Notation format (JSON) in row-major order
http://www.bom.gov.au/fwo/IDS60901/IDS60901.94681.json